createdAt,value
2023-01-03T00:04:49.696Z,20.40
2023-01-03T00:13:13.057Z,18.90
2023-01-03T00:21:36.473Z,17.60
2023-01-03T00:29:59.292Z,21.30
2023-01-03T00:38:22.088Z,20.80
2023-01-03T00:46:47.299Z,13.90
2023-01-03T00:55:10.956Z,18.30
2023-01-03T01:03:35.655Z,15.90
2023-01-03T01:11:58.876Z,16.00
2023-01-03T01:20:21.680Z,18.80
2023-01-03T01:28:44.740Z,15.60
2023-01-03T01:37:07.567Z,17.10
2023-01-03T01:45:30.623Z,19.60
2023-01-03T01:53:55.852Z,17.00
2023-01-03T02:02:22.301Z,18.00
2023-01-03T02:11:06.810Z,21.20
2023-01-03T02:19:59.997Z,16.70
2023-01-03T02:28:41.892Z,19.00
2023-01-03T02:37:15.842Z,22.00
2023-01-03T02:45:53.976Z,17.20
2023-01-03T02:54:42.112Z,17.20
2023-01-03T03:03:11.717Z,13.50
2023-01-03T03:11:56.723Z,14.50
2023-01-03T03:20:38.408Z,20.80
2023-01-03T03:29:08.499Z,23.30
2023-01-03T03:37:35.924Z,13.80
2023-01-03T03:46:10.435Z,15.00
2023-01-03T03:54:36.855Z,11.90
2023-01-03T04:03:02.733Z,13.90
2023-01-03T04:11:27.056Z,13.40
2023-01-03T04:19:49.946Z,12.90
2023-01-03T04:28:12.783Z,15.00
2023-01-03T04:36:36.046Z,14.30
2023-01-03T04:44:58.905Z,16.20
2023-01-03T04:53:23.597Z,12.40
2023-01-03T05:01:52.313Z,11.30
2023-01-03T05:10:15.523Z,15.10
2023-01-03T05:18:39.305Z,15.90
2023-01-03T05:27:05.449Z,14.30
2023-01-03T05:35:28.211Z,13.30
2023-01-03T05:43:50.983Z,16.40
2023-01-03T05:52:13.847Z,12.30
2023-01-03T06:00:36.730Z,20.90
2023-01-03T06:09:00.008Z,8.70
2023-01-03T06:17:41.714Z,8.00
2023-01-03T06:26:04.622Z,6.70
2023-01-03T06:34:27.398Z,10.50
2023-01-03T06:42:50.210Z,9.40
2023-01-03T06:51:37.253Z,8.50
2023-01-03T07:00:00.108Z,6.70
2023-01-03T07:08:23.084Z,16.00
2023-01-03T07:16:47.868Z,11.80
2023-01-03T07:25:12.228Z,8.10
2023-01-03T07:33:37.259Z,7.60
2023-01-03T07:42:18.940Z,6.30
2023-01-03T07:50:42.462Z,7.10
2023-01-03T07:59:05.252Z,11.80
2023-01-03T08:07:28.018Z,10.80
2023-01-03T08:15:55.823Z,5.60
2023-01-03T08:24:18.750Z,6.30
2023-01-03T08:32:41.849Z,6.90
2023-01-03T08:41:08.722Z,7.10
2023-01-03T08:49:32.347Z,9.00
2023-01-03T08:57:55.271Z,7.80
2023-01-03T09:06:18.940Z,15.30
2023-01-03T09:14:41.878Z,12.20
2023-01-03T09:23:04.708Z,9.20
2023-01-03T09:31:29.370Z,8.60
2023-01-03T09:39:52.314Z,8.90
2023-01-03T09:48:18.564Z,8.10
2023-01-03T09:57:00.032Z,12.90
2023-01-03T10:05:43.324Z,8.80
2023-01-03T10:14:42.753Z,6.20
2023-01-03T10:23:08.035Z,5.50
2023-01-03T10:32:09.206Z,8.50
2023-01-03T10:40:48.164Z,6.70
2023-01-03T10:49:30.594Z,8.10
2023-01-03T10:57:53.476Z,6.10
2023-01-03T11:06:16.456Z,3.80
2023-01-03T11:14:39.306Z,10.90
2023-01-03T11:23:08.774Z,9.40
2023-01-03T11:31:52.613Z,7.80
2023-01-03T11:40:15.491Z,7.90
2023-01-03T11:49:03.228Z,7.60
2023-01-03T11:58:02.432Z,5.40
2023-01-03T12:07:47.029Z,8.40
2023-01-03T12:16:08.859Z,5.80
2023-01-03T12:24:39.386Z,9.30
2023-01-03T12:33:13.463Z,4.20
2023-01-03T12:41:55.013Z,11.20
2023-01-03T12:50:41.443Z,11.80
2023-01-03T12:59:23.281Z,9.80
2023-01-03T13:07:54.835Z,10.10
2023-01-03T13:17:04.762Z,10.10
2023-01-03T13:25:42.762Z,20.50
2023-01-03T13:34:18.389Z,15.20
2023-01-03T13:42:41.310Z,12.90
2023-01-03T13:51:17.778Z,12.50
2023-01-03T13:59:48.029Z,7.90
2023-01-03T14:08:24.102Z,11.30
2023-01-03T14:16:52.278Z,28.60
2023-01-03T14:25:36.710Z,28.30
2023-01-03T14:34:02.904Z,25.90
2023-01-03T14:42:26.536Z,19.10
2023-01-03T14:50:49.678Z,29.40
2023-01-03T14:59:16.706Z,16.90
2023-01-03T15:07:43.440Z,17.90
2023-01-03T15:16:18.957Z,17.70
2023-01-03T15:24:44.981Z,25.30
2023-01-03T15:33:34.441Z,37.00
2023-01-03T15:42:43.595Z,42.60
2023-01-03T15:51:04.547Z,42.20
2023-01-03T15:59:30.194Z,44.50
2023-01-03T16:07:52.987Z,71.70
2023-01-03T16:16:22.087Z,30.80
2023-01-03T16:24:45.485Z,28.00
2023-01-03T16:33:25.634Z,27.40
2023-01-03T16:42:08.446Z,17.60
2023-01-03T16:50:34.040Z,19.10
2023-01-03T16:58:57.048Z,27.40
2023-01-03T17:07:23.757Z,30.70
2023-01-03T17:15:46.633Z,22.20
2023-01-03T17:24:19.899Z,11.10
2023-01-03T17:32:43.079Z,17.20
2023-01-03T17:41:05.913Z,32.50
2023-01-03T17:49:28.825Z,29.70
2023-01-03T17:57:52.049Z,22.00
2023-01-03T18:06:19.743Z,25.60
2023-01-03T18:14:42.549Z,28.40
2023-01-03T18:23:16.389Z,25.90
2023-01-03T18:31:39.653Z,16.90
2023-01-03T18:40:05.751Z,18.10
2023-01-03T18:48:30.806Z,16.40
2023-01-03T18:56:53.635Z,25.10
2023-01-03T19:05:17.157Z,19.10
2023-01-03T19:13:53.287Z,18.30
2023-01-03T19:22:30.731Z,13.90
2023-01-03T19:30:53.554Z,20.70
2023-01-03T19:39:22.423Z,22.50
2023-01-03T19:47:48.104Z,15.80
2023-01-03T19:56:21.456Z,12.40
2023-01-03T20:04:45.162Z,14.20
2023-01-03T20:13:17.187Z,12.40
2023-01-03T20:21:39.990Z,13.10
2023-01-03T20:30:02.877Z,17.70
2023-01-03T20:38:27.290Z,12.70
2023-01-03T20:46:53.737Z,15.70
2023-01-03T20:55:19.089Z,15.60
2023-01-03T21:03:41.956Z,12.50
2023-01-03T21:12:04.994Z,11.40
2023-01-03T21:20:29.769Z,18.30
2023-01-03T21:28:52.904Z,11.50
2023-01-03T21:37:16.041Z,10.60
2023-01-03T21:45:46.421Z,11.00
2023-01-03T21:54:09.771Z,13.60
2023-01-03T22:02:57.858Z,8.70
2023-01-03T22:11:24.928Z,12.60
2023-01-03T22:19:47.765Z,16.50
2023-01-03T22:28:10.526Z,13.40
2023-01-03T22:36:33.406Z,13.20
2023-01-03T22:44:56.250Z,10.50
2023-01-03T22:53:19.121Z,12.90
2023-01-03T23:01:42.817Z,13.30
2023-01-03T23:10:06.417Z,14.10
2023-01-03T23:18:33.124Z,16.10
2023-01-03T23:26:55.987Z,24.90
2023-01-03T23:35:18.938Z,17.70
2023-01-03T23:43:42.268Z,17.70
2023-01-03T23:52:05.424Z,27.10
